sensor_id;sensor_type;location;lat;lon;timestamp;P1;P2;P0
33264;PMS5003;31404;53.974;-1.086;2023-05-16T00:00:36;3;1;
33264;PMS5003;31404;53.974;-1.086;2023-05-16T00:05:34;2;1;
33264;PMS5003;31404;53.974;-1.086;2023-05-16T00:10:34;6;3;
33264;PMS5003;31404;53.974;-1.086;2023-05-16T00:15:34;3;3;
33264;PMS5003;31404;53.974;-1.086;2023-05-16T00:20:35;4;3;
33264;PMS5003;31404;53.974;-1.086;2023-05-16T00:25:36;2;2;
33264;PMS5003;31404;53.974;-1.086;2023-05-16T00:30:35;2;2;
33264;PMS5003;31404;53.974;-1.086;2023-05-16T00:35:36;2;2;
33264;PMS5003;31404;53.974;-1.086;2023-05-16T00:40:36;1;1;
33264;PMS5003;31404;53.974;-1.086;2023-05-16T00:45:35;1;1;
33264;PMS5003;31404;53.974;-1.086;2023-05-16T00:50:35;2;1;
33264;PMS5003;31404;53.974;-1.086;2023-05-16T00:55:34;1;1;
33264;PMS5003;31404;53.974;-1.086;2023-05-16T01:00:37;2;2;
33264;PMS5003;31404;53.974;-1.086;2023-05-16T01:05:35;2;2;
33264;PMS5003;31404;53.974;-1.086;2023-05-16T01:10:42;1;1;
33264;PMS5003;31404;53.974;-1.086;2023-05-16T01:15:41;1;1;
33264;PMS5003;31404;53.974;-1.086;2023-05-16T01:20:36;2;2;
33264;PMS5003;31404;53.974;-1.086;2023-05-16T01:30:37;2;1;
33264;PMS5003;31404;53.974;-1.086;2023-05-16T01:35:37;4;1;
33264;PMS5003;31404;53.974;-1.086;2023-05-16T01:40:37;2;1;
33264;PMS5003;31404;53.974;-1.086;2023-05-16T01:45:38;4;3;
33264;PMS5003;31404;53.974;-1.086;2023-05-16T01:50:34;2;2;
33264;PMS5003;31404;53.974;-1.086;2023-05-16T01:55:40;3;3;
33264;PMS5003;31404;53.974;-1.086;2023-05-16T02:00:37;4;2;
33264;PMS5003;31404;53.974;-1.086;2023-05-16T02:05:36;5;3;
33264;PMS5003;31404;53.974;-1.086;2023-05-16T02:10:37;1;1;
33264;PMS5003;31404;53.974;-1.086;2023-05-16T02:15:34;3;3;
33264;PMS5003;31404;53.974;-1.086;2023-05-16T02:20:37;1;1;
33264;PMS5003;31404;53.974;-1.086;2023-05-16T02:25:34;1;1;
33264;PMS5003;31404;53.974;-1.086;2023-05-16T02:30:36;1;1;
33264;PMS5003;31404;53.974;-1.086;2023-05-16T02:35:35;0;0;
33264;PMS5003;31404;53.974;-1.086;2023-05-16T02:40:35;1;1;
33264;PMS5003;31404;53.974;-1.086;2023-05-16T02:45:36;2;1;
33264;PMS5003;31404;53.974;-1.086;2023-05-16T02:50:35;4;4;
33264;PMS5003;31404;53.974;-1.086;2023-05-16T02:55:35;2;2;
33264;PMS5003;31404;53.974;-1.086;2023-05-16T03:00:34;1;1;
33264;PMS5003;31404;53.974;-1.086;2023-05-16T03:05:34;2;2;
33264;PMS5003;31404;53.974;-1.086;2023-05-16T03:10:35;1;1;
33264;PMS5003;31404;53.974;-1.086;2023-05-16T03:15:34;1;1;
33264;PMS5003;31404;53.974;-1.086;2023-05-16T03:20:35;1;1;
33264;PMS5003;31404;53.974;-1.086;2023-05-16T03:25:35;1;1;
33264;PMS5003;31404;53.974;-1.086;2023-05-16T03:30:37;1;1;
33264;PMS5003;31404;53.974;-1.086;2023-05-16T03:35:35;2;2;
33264;PMS5003;31404;53.974;-1.086;2023-05-16T03:40:37;3;2;
33264;PMS5003;31404;53.974;-1.086;2023-05-16T03:45:34;4;2;
33264;PMS5003;31404;53.974;-1.086;2023-05-16T03:50:34;0;0;
33264;PMS5003;31404;53.974;-1.086;2023-05-16T03:55:33;5;2;
33264;PMS5003;31404;53.974;-1.086;2023-05-16T04:00:36;3;3;
33264;PMS5003;31404;53.974;-1.086;2023-05-16T04:05:35;2;2;
33264;PMS5003;31404;53.974;-1.086;2023-05-16T04:10:34;3;1;
33264;PMS5003;31404;53.974;-1.086;2023-05-16T04:15:34;1;1;
33264;PMS5003;31404;53.974;-1.086;2023-05-16T04:20:40;2;1;
33264;PMS5003;31404;53.974;-1.086;2023-05-16T04:25:35;4;2;
33264;PMS5003;31404;53.974;-1.086;2023-05-16T04:30:36;1;1;
33264;PMS5003;31404;53.974;-1.086;2023-05-16T04:35:37;5;3;
33264;PMS5003;31404;53.974;-1.086;2023-05-16T04:40:37;4;4;
33264;PMS5003;31404;53.974;-1.086;2023-05-16T04:45:34;4;4;
33264;PMS5003;31404;53.974;-1.086;2023-05-16T04:50:36;2;2;
33264;PMS5003;31404;53.974;-1.086;2023-05-16T04:55:37;6;4;
33264;PMS5003;31404;53.974;-1.086;2023-05-16T05:00:37;2;2;
33264;PMS5003;31404;53.974;-1.086;2023-05-16T05:05:34;1;1;
33264;PMS5003;31404;53.974;-1.086;2023-05-16T05:10:38;2;2;
33264;PMS5003;31404;53.974;-1.086;2023-05-16T05:15:39;3;3;
33264;PMS5003;31404;53.974;-1.086;2023-05-16T05:20:35;1;1;
33264;PMS5003;31404;53.974;-1.086;2023-05-16T05:25:38;4;2;
33264;PMS5003;31404;53.974;-1.086;2023-05-16T05:30:37;1;1;
33264;PMS5003;31404;53.974;-1.086;2023-05-16T05:35:36;2;1;
33264;PMS5003;31404;53.974;-1.086;2023-05-16T05:40:37;3;1;
33264;PMS5003;31404;53.974;-1.086;2023-05-16T05:45:35;1;1;
33264;PMS5003;31404;53.974;-1.086;2023-05-16T05:50:34;1;1;
33264;PMS5003;31404;53.974;-1.086;2023-05-16T05:55:37;4;2;
33264;PMS5003;31404;53.974;-1.086;2023-05-16T06:00:36;4;2;
33264;PMS5003;31404;53.974;-1.086;2023-05-16T06:05:37;5;4;
33264;PMS5003;31404;53.974;-1.086;2023-05-16T06:10:36;2;2;
33264;PMS5003;31404;53.974;-1.086;2023-05-16T06:15:37;2;2;
33264;PMS5003;31404;53.974;-1.086;2023-05-16T06:20:37;3;2;
33264;PMS5003;31404;53.974;-1.086;2023-05-16T06:25:34;3;2;
33264;PMS5003;31404;53.974;-1.086;2023-05-16T06:30:37;1;1;
33264;PMS5003;31404;53.974;-1.086;2023-05-16T06:35:37;5;2;
33264;PMS5003;31404;53.974;-1.086;2023-05-16T06:40:35;3;2;
33264;PMS5003;31404;53.974;-1.086;2023-05-16T06:45:34;4;2;
33264;PMS5003;31404;53.974;-1.086;2023-05-16T06:50:38;3;3;
33264;PMS5003;31404;53.974;-1.086;2023-05-16T06:55:37;1;1;
33264;PMS5003;31404;53.974;-1.086;2023-05-16T07:00:36;2;2;
33264;PMS5003;31404;53.974;-1.086;2023-05-16T07:05:36;7;4;
33264;PMS5003;31404;53.974;-1.086;2023-05-16T07:10:38;3;3;
33264;PMS5003;31404;53.974;-1.086;2023-05-16T07:15:34;4;3;
33264;PMS5003;31404;53.974;-1.086;2023-05-16T07:20:34;6;4;
33264;PMS5003;31404;53.974;-1.086;2023-05-16T07:25:38;8;3;
33264;PMS5003;31404;53.974;-1.086;2023-05-16T07:30:34;4;4;
33264;PMS5003;31404;53.974;-1.086;2023-05-16T07:35:35;8;8;
33264;PMS5003;31404;53.974;-1.086;2023-05-16T07:40:37;6;4;
33264;PMS5003;31404;53.974;-1.086;2023-05-16T07:45:36;6;3;
33264;PMS5003;31404;53.974;-1.086;2023-05-16T07:50:35;1;1;
33264;PMS5003;31404;53.974;-1.086;2023-05-16T07:55:34;5;5;
33264;PMS5003;31404;53.974;-1.086;2023-05-16T08:00:37;8;6;
33264;PMS5003;31404;53.974;-1.086;2023-05-16T08:05:35;6;6;
33264;PMS5003;31404;53.974;-1.086;2023-05-16T08:10:38;6;5;
33264;PMS5003;31404;53.974;-1.086;2023-05-16T08:15:34;4;3;
33264;PMS5003;31404;53.974;-1.086;2023-05-16T08:20:34;6;4;
33264;PMS5003;31404;53.974;-1.086;2023-05-16T08:25:38;5;4;
33264;PMS5003;31404;53.974;-1.086;2023-05-16T08:30:35;5;5;
33264;PMS5003;31404;53.974;-1.086;2023-05-16T08:40:36;9;7;
33264;PMS5003;31404;53.974;-1.086;2023-05-16T08:45:35;4;3;
33264;PMS5003;31404;53.974;-1.086;2023-05-16T08:50:34;7;5;
33264;PMS5003;31404;53.974;-1.086;2023-05-16T08:55:37;7;7;
33264;PMS5003;31404;53.974;-1.086;2023-05-16T09:00:37;10;9;
33264;PMS5003;31404;53.974;-1.086;2023-05-16T09:05:34;6;6;
33264;PMS5003;31404;53.974;-1.086;2023-05-16T09:10:35;7;7;
33264;PMS5003;31404;53.974;-1.086;2023-05-16T09:15:35;3;3;
33264;PMS5003;31404;53.974;-1.086;2023-05-16T09:25:36;11;8;
33264;PMS5003;31404;53.974;-1.086;2023-05-16T09:30:34;5;5;
33264;PMS5003;31404;53.974;-1.086;2023-05-16T09:35:37;7;7;
33264;PMS5003;31404;53.974;-1.086;2023-05-16T09:40:34;5;5;
33264;PMS5003;31404;53.974;-1.086;2023-05-16T09:45:37;6;5;
33264;PMS5003;31404;53.974;-1.086;2023-05-16T09:50:36;1;1;
33264;PMS5003;31404;53.974;-1.086;2023-05-16T09:55:34;7;5;
33264;PMS5003;31404;53.974;-1.086;2023-05-16T10:00:34;4;4;
33264;PMS5003;31404;53.974;-1.086;2023-05-16T10:05:29;6;5;
33264;PMS5003;31404;53.974;-1.086;2023-05-16T10:10:35;5;5;
33264;PMS5003;31404;53.974;-1.086;2023-05-16T10:15:35;7;6;
33264;PMS5003;31404;53.974;-1.086;2023-05-16T10:20:34;5;5;
33264;PMS5003;31404;53.974;-1.086;2023-05-16T10:25:38;6;5;
33264;PMS5003;31404;53.974;-1.086;2023-05-16T10:30:34;5;5;
33264;PMS5003;31404;53.974;-1.086;2023-05-16T10:35:35;7;5;
33264;PMS5003;31404;53.974;-1.086;2023-05-16T10:40:38;4;4;
33264;PMS5003;31404;53.974;-1.086;2023-05-16T10:50:35;8;6;
33264;PMS5003;31404;53.974;-1.086;2023-05-16T10:55:37;6;4;
33264;PMS5003;31404;53.974;-1.086;2023-05-16T11:00:38;6;6;
33264;PMS5003;31404;53.974;-1.086;2023-05-16T11:05:34;6;5;
33264;PMS5003;31404;53.974;-1.086;2023-05-16T11:10:34;7;5;
33264;PMS5003;31404;53.974;-1.086;2023-05-16T11:15:34;5;5;
33264;PMS5003;31404;53.974;-1.086;2023-05-16T11:20:35;5;5;
33264;PMS5003;31404;53.974;-1.086;2023-05-16T11:25:38;7;5;
33264;PMS5003;31404;53.974;-1.086;2023-05-16T11:30:34;12;6;
33264;PMS5003;31404;53.974;-1.086;2023-05-16T11:35:35;12;5;
33264;PMS5003;31404;53.974;-1.086;2023-05-16T11:40:34;5;5;
33264;PMS5003;31404;53.974;-1.086;2023-05-16T11:45:36;8;6;
33264;PMS5003;31404;53.974;-1.086;2023-05-16T11:50:35;5;4;
33264;PMS5003;31404;53.974;-1.086;2023-05-16T11:55:35;4;2;
33264;PMS5003;31404;53.974;-1.086;2023-05-16T12:00:34;6;4;
33264;PMS5003;31404;53.974;-1.086;2023-05-16T12:05:35;7;5;
33264;PMS5003;31404;53.974;-1.086;2023-05-16T12:10:35;5;5;
33264;PMS5003;31404;53.974;-1.086;2023-05-16T12:15:36;6;4;
33264;PMS5003;31404;53.974;-1.086;2023-05-16T12:20:36;7;4;
33264;PMS5003;31404;53.974;-1.086;2023-05-16T12:25:37;4;4;
33264;PMS5003;31404;53.974;-1.086;2023-05-16T12:30:35;4;4;
33264;PMS5003;31404;53.974;-1.086;2023-05-16T12:35:34;4;4;
33264;PMS5003;31404;53.974;-1.086;2023-05-16T12:40:35;9;7;
33264;PMS5003;31404;53.974;-1.086;2023-05-16T12:45:36;3;3;
33264;PMS5003;31404;53.974;-1.086;2023-05-16T12:50:37;6;4;
33264;PMS5003;31404;53.974;-1.086;2023-05-16T12:55:38;6;4;
33264;PMS5003;31404;53.974;-1.086;2023-05-16T13:00:37;5;5;
33264;PMS5003;31404;53.974;-1.086;2023-05-16T13:05:35;5;5;
33264;PMS5003;31404;53.974;-1.086;2023-05-16T13:10:34;4;3;
33264;PMS5003;31404;53.974;-1.086;2023-05-16T13:15:34;4;3;
33264;PMS5003;31404;53.974;-1.086;2023-05-16T13:20:34;4;4;
33264;PMS5003;31404;53.974;-1.086;2023-05-16T13:25:34;4;2;
33264;PMS5003;31404;53.974;-1.086;2023-05-16T13:30:35;3;3;
33264;PMS5003;31404;53.974;-1.086;2023-05-16T13:35:36;7;3;
33264;PMS5003;31404;53.974;-1.086;2023-05-16T13:40:35;6;6;
33264;PMS5003;31404;53.974;-1.086;2023-05-16T13:45:34;7;5;
33264;PMS5003;31404;53.974;-1.086;2023-05-16T13:50:36;4;4;
33264;PMS5003;31404;53.974;-1.086;2023-05-16T13:55:36;3;3;
33264;PMS5003;31404;53.974;-1.086;2023-05-16T14:00:34;2;2;
33264;PMS5003;31404;53.974;-1.086;2023-05-16T14:05:34;5;5;
33264;PMS5003;31404;53.974;-1.086;2023-05-16T14:10:35;4;4;
33264;PMS5003;31404;53.974;-1.086;2023-05-16T14:15:35;4;4;
33264;PMS5003;31404;53.974;-1.086;2023-05-16T14:20:34;4;4;
33264;PMS5003;31404;53.974;-1.086;2023-05-16T14:30:35;7;5;
33264;PMS5003;31404;53.974;-1.086;2023-05-16T14:35:34;5;5;
33264;PMS5003;31404;53.974;-1.086;2023-05-16T14:40:34;4;4;
33264;PMS5003;31404;53.974;-1.086;2023-05-16T14:45:36;5;4;
33264;PMS5003;31404;53.974;-1.086;2023-05-16T14:50:36;5;5;
33264;PMS5003;31404;53.974;-1.086;2023-05-16T14:55:34;5;4;
33264;PMS5003;31404;53.974;-1.086;2023-05-16T15:00:33;3;3;
33264;PMS5003;31404;53.974;-1.086;2023-05-16T15:05:34;7;5;
33264;PMS5003;31404;53.974;-1.086;2023-05-16T15:10:34;5;4;
33264;PMS5003;31404;53.974;-1.086;2023-05-16T15:15:34;5;5;
33264;PMS5003;31404;53.974;-1.086;2023-05-16T15:20:34;7;5;
33264;PMS5003;31404;53.974;-1.086;2023-05-16T15:25:34;7;6;
33264;PMS5003;31404;53.974;-1.086;2023-05-16T15:30:34;7;7;
33264;PMS5003;31404;53.974;-1.086;2023-05-16T15:35:34;3;3;
33264;PMS5003;31404;53.974;-1.086;2023-05-16T15:40:35;7;4;
33264;PMS5003;31404;53.974;-1.086;2023-05-16T15:45:36;5;4;
33264;PMS5003;31404;53.974;-1.086;2023-05-16T15:50:35;3;3;
33264;PMS5003;31404;53.974;-1.086;2023-05-16T15:55:35;5;5;
33264;PMS5003;31404;53.974;-1.086;2023-05-16T16:00:34;5;5;
33264;PMS5003;31404;53.974;-1.086;2023-05-16T16:05:34;5;5;
33264;PMS5003;31404;53.974;-1.086;2023-05-16T16:10:34;8;6;
33264;PMS5003;31404;53.974;-1.086;2023-05-16T16:15:37;4;4;
33264;PMS5003;31404;53.974;-1.086;2023-05-16T16:20:35;3;3;
33264;PMS5003;31404;53.974;-1.086;2023-05-16T16:25:34;6;5;
33264;PMS5003;31404;53.974;-1.086;2023-05-16T16:30:37;9;5;
33264;PMS5003;31404;53.974;-1.086;2023-05-16T16:35:34;5;3;
33264;PMS5003;31404;53.974;-1.086;2023-05-16T16:40:34;4;4;
33264;PMS5003;31404;53.974;-1.086;2023-05-16T16:45:34;7;7;
33264;PMS5003;31404;53.974;-1.086;2023-05-16T16:50:35;6;6;
33264;PMS5003;31404;53.974;-1.086;2023-05-16T16:55:35;7;7;
33264;PMS5003;31404;53.974;-1.086;2023-05-16T17:00:35;8;5;
33264;PMS5003;31404;53.974;-1.086;2023-05-16T17:05:35;3;3;
33264;PMS5003;31404;53.974;-1.086;2023-05-16T17:10:34;4;2;
33264;PMS5003;31404;53.974;-1.086;2023-05-16T17:15:34;4;4;
33264;PMS5003;31404;53.974;-1.086;2023-05-16T17:20:34;6;5;
33264;PMS5003;31404;53.974;-1.086;2023-05-16T17:25:37;2;2;
33264;PMS5003;31404;53.974;-1.086;2023-05-16T17:30:34;4;4;
33264;PMS5003;31404;53.974;-1.086;2023-05-16T17:35:34;3;3;
33264;PMS5003;31404;53.974;-1.086;2023-05-16T17:40:35;4;2;
33264;PMS5003;31404;53.974;-1.086;2023-05-16T17:45:34;5;4;
33264;PMS5003;31404;53.974;-1.086;2023-05-16T17:50:35;3;3;
33264;PMS5003;31404;53.974;-1.086;2023-05-16T17:55:33;2;2;
33264;PMS5003;31404;53.974;-1.086;2023-05-16T18:00:34;2;2;
33264;PMS5003;31404;53.974;-1.086;2023-05-16T18:05:34;2;2;
33264;PMS5003;31404;53.974;-1.086;2023-05-16T18:10:34;7;6;
33264;PMS5003;31404;53.974;-1.086;2023-05-16T18:15:34;4;4;
33264;PMS5003;31404;53.974;-1.086;2023-05-16T18:20:36;4;4;
33264;PMS5003;31404;53.974;-1.086;2023-05-16T18:25:34;4;2;
33264;PMS5003;31404;53.974;-1.086;2023-05-16T18:30:33;3;3;
33264;PMS5003;31404;53.974;-1.086;2023-05-16T18:35:34;2;2;
33264;PMS5003;31404;53.974;-1.086;2023-05-16T18:40:36;5;5;
33264;PMS5003;31404;53.974;-1.086;2023-05-16T18:45:34;5;5;
33264;PMS5003;31404;53.974;-1.086;2023-05-16T18:50:34;7;5;
33264;PMS5003;31404;53.974;-1.086;2023-05-16T18:55:34;15;15;
33264;PMS5003;31404;53.974;-1.086;2023-05-16T19:00:36;6;6;
33264;PMS5003;31404;53.974;-1.086;2023-05-16T19:05:35;5;5;
33264;PMS5003;31404;53.974;-1.086;2023-05-16T19:10:35;7;5;
33264;PMS5003;31404;53.974;-1.086;2023-05-16T19:15:34;9;6;
33264;PMS5003;31404;53.974;-1.086;2023-05-16T19:20:34;8;7;
33264;PMS5003;31404;53.974;-1.086;2023-05-16T19:25:34;12;7;
33264;PMS5003;31404;53.974;-1.086;2023-05-16T19:30:35;8;8;
33264;PMS5003;31404;53.974;-1.086;2023-05-16T19:35:35;8;8;
33264;PMS5003;31404;53.974;-1.086;2023-05-16T19:40:34;19;17;
33264;PMS5003;31404;53.974;-1.086;2023-05-16T19:45:34;11;10;
33264;PMS5003;31404;53.974;-1.086;2023-05-16T19:50:34;12;7;
33264;PMS5003;31404;53.974;-1.086;2023-05-16T19:55:34;11;7;
33264;PMS5003;31404;53.974;-1.086;2023-05-16T20:00:34;8;7;
33264;PMS5003;31404;53.974;-1.086;2023-05-16T20:05:34;10;9;
33264;PMS5003;31404;53.974;-1.086;2023-05-16T20:10:36;11;10;
33264;PMS5003;31404;53.974;-1.086;2023-05-16T20:15:34;10;10;
33264;PMS5003;31404;53.974;-1.086;2023-05-16T20:20:34;11;7;
33264;PMS5003;31404;53.974;-1.086;2023-05-16T20:25:35;6;6;
33264;PMS5003;31404;53.974;-1.086;2023-05-16T20:30:34;6;4;
33264;PMS5003;31404;53.974;-1.086;2023-05-16T20:35:34;7;7;
33264;PMS5003;31404;53.974;-1.086;2023-05-16T20:40:34;6;6;
33264;PMS5003;31404;53.974;-1.086;2023-05-16T20:45:34;8;5;
33264;PMS5003;31404;53.974;-1.086;2023-05-16T20:50:34;3;3;
33264;PMS5003;31404;53.974;-1.086;2023-05-16T20:55:34;8;8;
33264;PMS5003;31404;53.974;-1.086;2023-05-16T21:00:34;11;11;
33264;PMS5003;31404;53.974;-1.086;2023-05-16T21:05:34;6;6;
33264;PMS5003;31404;53.974;-1.086;2023-05-16T21:10:34;11;8;
33264;PMS5003;31404;53.974;-1.086;2023-05-16T21:15:34;11;9;
33264;PMS5003;31404;53.974;-1.086;2023-05-16T21:20:34;7;7;
33264;PMS5003;31404;53.974;-1.086;2023-05-16T21:25:34;7;6;
33264;PMS5003;31404;53.974;-1.086;2023-05-16T21:30:38;7;6;
33264;PMS5003;31404;53.974;-1.086;2023-05-16T21:35:34;7;7;
33264;PMS5003;31404;53.974;-1.086;2023-05-16T21:40:34;10;5;
33264;PMS5003;31404;53.974;-1.086;2023-05-16T21:45:35;5;3;
33264;PMS5003;31404;53.974;-1.086;2023-05-16T21:50:35;8;7;
33264;PMS5003;31404;53.974;-1.086;2023-05-16T21:55:35;6;6;
33264;PMS5003;31404;53.974;-1.086;2023-05-16T22:00:34;7;5;
33264;PMS5003;31404;53.974;-1.086;2023-05-16T22:05:39;9;7;
33264;PMS5003;31404;53.974;-1.086;2023-05-16T22:10:34;9;6;
33264;PMS5003;31404;53.974;-1.086;2023-05-16T22:15:34;6;6;
33264;PMS5003;31404;53.974;-1.086;2023-05-16T22:20:37;12;9;
33264;PMS5003;31404;53.974;-1.086;2023-05-16T22:25:34;8;7;
33264;PMS5003;31404;53.974;-1.086;2023-05-16T22:30:35;16;13;
33264;PMS5003;31404;53.974;-1.086;2023-05-16T22:35:35;16;13;
33264;PMS5003;31404;53.974;-1.086;2023-05-16T22:40:34;9;6;
33264;PMS5003;31404;53.974;-1.086;2023-05-16T22:45:34;13;13;
33264;PMS5003;31404;53.974;-1.086;2023-05-16T22:50:37;15;13;
33264;PMS5003;31404;53.974;-1.086;2023-05-16T22:55:35;10;7;
33264;PMS5003;31404;53.974;-1.086;2023-05-16T23:00:44;13;11;
33264;PMS5003;31404;53.974;-1.086;2023-05-16T23:05:34;8;6;
33264;PMS5003;31404;53.974;-1.086;2023-05-16T23:10:35;13;7;
33264;PMS5003;31404;53.974;-1.086;2023-05-16T23:15:34;5;5;
33264;PMS5003;31404;53.974;-1.086;2023-05-16T23:20:35;7;7;
33264;PMS5003;31404;53.974;-1.086;2023-05-16T23:25:35;11;8;
33264;PMS5003;31404;53.974;-1.086;2023-05-16T23:30:34;4;4;
33264;PMS5003;31404;53.974;-1.086;2023-05-16T23:35:37;8;8;
33264;PMS5003;31404;53.974;-1.086;2023-05-16T23:40:38;5;5;
33264;PMS5003;31404;53.974;-1.086;2023-05-16T23:45:34;10;10;
33264;PMS5003;31404;53.974;-1.086;2023-05-16T23:50:34;6;6;
33264;PMS5003;31404;53.974;-1.086;2023-05-16T23:55:34;7;6;
